createdAt,value
2022-11-04T00:00:18.039Z,10.00
2022-11-04T00:02:45.901Z,10.00
2022-11-04T00:05:13.665Z,10.00
2022-11-04T00:08:00.523Z,10.00
2022-11-04T00:10:42.185Z,9.90
2022-11-04T00:13:10.103Z,9.90
2022-11-04T00:15:56.101Z,9.90
2022-11-04T00:18:23.810Z,9.90
2022-11-04T00:21:08.932Z,9.80
2022-11-04T00:23:55.492Z,9.80
2022-11-04T00:26:40.863Z,9.80
2022-11-04T00:29:08.583Z,9.80
2022-11-04T00:31:53.938Z,9.70
2022-11-04T00:37:02.917Z,9.70
2022-11-04T00:39:32.022Z,9.70
2022-11-04T00:41:59.873Z,9.70
2022-11-04T00:44:27.662Z,9.70
2022-11-04T00:46:55.419Z,9.70
2022-11-04T00:49:23.184Z,9.70
2022-11-04T00:51:51.054Z,9.70
2022-11-04T00:54:19.055Z,9.70
2022-11-04T00:56:48.784Z,9.70
2022-11-04T00:59:16.781Z,9.70
2022-11-04T01:01:44.775Z,9.70
2022-11-04T01:04:12.674Z,9.70
2022-11-04T01:06:40.454Z,9.70
2022-11-04T01:09:09.905Z,9.70
2022-11-04T01:11:37.671Z,9.70
2022-11-04T01:14:06.799Z,9.70
2022-11-04T01:16:34.578Z,9.70
2022-11-04T01:19:02.672Z,9.70
2022-11-04T01:21:30.484Z,9.70
2022-11-04T01:23:58.585Z,9.60
2022-11-04T01:26:27.469Z,9.60
2022-11-04T01:28:56.952Z,9.60
2022-11-04T01:31:28.746Z,9.60
2022-11-04T01:33:57.273Z,9.60
2022-11-04T01:36:26.268Z,9.60
2022-11-04T01:38:56.278Z,9.60
2022-11-04T01:41:26.112Z,9.60
2022-11-04T01:43:55.513Z,9.60
2022-11-04T01:46:33.805Z,9.60
2022-11-04T01:49:09.883Z,9.60
2022-11-04T01:51:41.280Z,9.60
2022-11-04T01:54:11.171Z,9.60
2022-11-04T01:56:40.712Z,9.60
2022-11-04T01:59:12.468Z,9.60
2022-11-04T02:01:41.747Z,9.60
2022-11-04T02:04:26.953Z,9.60
2022-11-04T02:06:57.585Z,9.60
2022-11-04T02:09:27.900Z,9.60
2022-11-04T02:12:13.445Z,9.60
2022-11-04T02:14:42.295Z,9.60
2022-11-04T02:17:29.213Z,9.60
2022-11-04T02:20:20.615Z,9.50
2022-11-04T02:23:27.150Z,9.50
2022-11-04T02:26:26.615Z,9.50
2022-11-04T02:29:21.134Z,9.50
2022-11-04T02:31:56.112Z,9.50
2022-11-04T02:34:34.986Z,9.40
2022-11-04T02:37:13.968Z,9.40
2022-11-04T02:39:52.600Z,9.30
2022-11-04T02:42:28.721Z,9.30
2022-11-04T02:45:11.127Z,9.30
2022-11-04T02:47:43.422Z,9.30
2022-11-04T02:50:15.424Z,9.30
2022-11-04T02:52:51.331Z,9.30
2022-11-04T02:55:23.769Z,9.20
2022-11-04T02:57:55.084Z,9.20
2022-11-04T03:00:24.718Z,9.20
2022-11-04T03:02:58.209Z,9.10
2022-11-04T03:05:29.603Z,9.10
2022-11-04T03:08:01.535Z,9.10
2022-11-04T03:10:35.330Z,9.00
2022-11-04T03:13:07.083Z,9.00
2022-11-04T03:15:41.168Z,8.90
2022-11-04T03:18:18.662Z,8.90
2022-11-04T03:20:49.729Z,8.90
2022-11-04T03:23:18.277Z,8.90
2022-11-04T03:25:47.924Z,8.90
2022-11-04T03:28:26.252Z,8.80
2022-11-04T03:30:58.895Z,8.80
2022-11-04T03:33:29.880Z,8.80
2022-11-04T03:35:58.410Z,8.80
2022-11-04T03:38:26.275Z,8.80
2022-11-04T03:40:54.060Z,8.70
2022-11-04T03:43:25.860Z,8.70
2022-11-04T03:45:55.488Z,8.60
2022-11-04T03:48:24.446Z,8.60
2022-11-04T03:50:52.283Z,8.50
2022-11-04T03:53:23.219Z,8.50
2022-11-04T03:56:15.500Z,8.50
2022-11-04T03:58:53.027Z,8.40
2022-11-04T04:01:31.308Z,8.40
2022-11-04T04:04:02.631Z,8.40
2022-11-04T04:06:35.892Z,8.40
2022-11-04T04:09:10.409Z,8.30
2022-11-04T04:11:45.670Z,8.30
2022-11-04T04:14:39.099Z,8.30
2022-11-04T04:17:13.217Z,8.30
2022-11-04T04:19:45.795Z,8.30
2022-11-04T04:22:18.100Z,8.20
2022-11-04T04:25:06.720Z,8.20
2022-11-04T04:27:36.111Z,8.20
2022-11-04T04:30:07.296Z,8.20
2022-11-04T04:32:41.574Z,8.10
2022-11-04T04:35:28.383Z,8.10
2022-11-04T04:38:18.668Z,8.10
2022-11-04T04:41:09.310Z,8.10
2022-11-04T04:43:56.878Z,8.00
2022-11-04T04:46:25.091Z,8.00
2022-11-04T04:48:54.244Z,8.00
2022-11-04T04:51:22.894Z,8.00
2022-11-04T04:53:50.707Z,8.00
2022-11-04T04:56:18.481Z,8.00
2022-11-04T04:58:46.256Z,8.00
2022-11-04T05:01:14.259Z,8.00
2022-11-04T05:03:45.121Z,8.00
2022-11-04T05:06:14.582Z,8.00
2022-11-04T05:08:42.393Z,8.00
2022-11-04T05:11:10.702Z,8.00
2022-11-04T05:13:38.521Z,8.00
2022-11-04T05:16:08.478Z,8.00
2022-11-04T05:18:36.897Z,8.00
2022-11-04T05:21:06.064Z,8.00
2022-11-04T05:23:35.443Z,8.00
2022-11-04T05:26:03.631Z,8.00
2022-11-04T05:28:31.496Z,8.00
2022-11-04T05:31:03.017Z,8.00
2022-11-04T05:33:30.831Z,8.00
2022-11-04T05:36:07.118Z,8.00
2022-11-04T05:38:36.574Z,7.90
2022-11-04T05:41:04.464Z,8.00
2022-11-04T05:43:32.322Z,8.00
2022-11-04T05:46:00.509Z,8.00
2022-11-04T05:48:28.683Z,8.00
2022-11-04T05:50:56.941Z,7.90
2022-11-04T05:53:24.791Z,7.90
2022-11-04T05:55:53.957Z,7.90
2022-11-04T05:58:21.843Z,7.90
2022-11-04T06:00:49.658Z,7.90
2022-11-04T06:03:17.519Z,7.90
2022-11-04T06:05:45.367Z,8.00
2022-11-04T06:08:13.175Z,7.90
2022-11-04T06:10:40.989Z,7.90
2022-11-04T06:13:10.096Z,7.90
2022-11-04T06:15:37.884Z,7.90
2022-11-04T06:18:05.695Z,7.90
2022-11-04T06:20:33.708Z,7.80
2022-11-04T06:23:01.466Z,7.80
2022-11-04T06:25:31.402Z,7.80
2022-11-04T06:27:59.367Z,7.80
2022-11-04T06:30:28.466Z,7.80
2022-11-04T06:32:56.221Z,7.80
2022-11-04T06:35:24.048Z,7.80
2022-11-04T06:37:51.833Z,7.90
2022-11-04T06:40:19.611Z,7.90
2022-11-04T06:42:47.337Z,7.80
2022-11-04T06:45:15.173Z,7.90
2022-11-04T06:47:44.330Z,7.90
2022-11-04T06:50:14.615Z,7.90
2022-11-04T06:52:42.838Z,7.90
2022-11-04T06:55:11.326Z,7.90
2022-11-04T06:57:39.176Z,8.00
2022-11-04T07:00:08.148Z,8.00
2022-11-04T07:02:36.487Z,8.00
2022-11-04T07:05:06.785Z,8.00
2022-11-04T07:07:35.216Z,8.00
2022-11-04T07:10:03.001Z,8.00
2022-11-04T07:12:30.861Z,8.00
2022-11-04T07:14:58.784Z,8.00
2022-11-04T07:17:26.599Z,8.10
2022-11-04T07:19:54.671Z,8.20
2022-11-04T07:22:23.818Z,8.20
2022-11-04T07:24:51.651Z,8.20
2022-11-04T07:27:19.881Z,8.20
2022-11-04T07:29:47.639Z,8.30
2022-11-04T07:32:15.456Z,8.30
2022-11-04T07:34:43.219Z,8.40
2022-11-04T07:37:10.974Z,8.40
2022-11-04T07:39:40.097Z,8.30
2022-11-04T07:42:09.039Z,8.40
2022-11-04T07:44:36.865Z,8.30
2022-11-04T07:47:04.930Z,8.30
2022-11-04T07:49:33.537Z,8.30
2022-11-04T07:52:01.338Z,8.40
2022-11-04T07:54:29.179Z,8.40
2022-11-04T07:56:59.342Z,8.40
2022-11-04T07:59:28.036Z,8.40
2022-11-04T08:01:56.049Z,8.40
2022-11-04T08:04:23.963Z,8.40
2022-11-04T08:06:51.688Z,8.50
2022-11-04T08:09:19.499Z,8.50
2022-11-04T08:11:47.301Z,8.50
2022-11-04T08:14:16.695Z,8.50
2022-11-04T08:16:44.477Z,8.50
2022-11-04T08:19:12.653Z,8.50
2022-11-04T08:21:40.418Z,8.60
2022-11-04T08:24:08.365Z,8.60
2022-11-04T08:26:36.319Z,8.60
2022-11-04T08:29:07.962Z,8.70
2022-11-04T08:31:37.314Z,8.70
2022-11-04T08:34:06.096Z,8.70
2022-11-04T08:36:36.570Z,8.80
2022-11-04T08:39:10.217Z,8.80
2022-11-04T08:41:40.959Z,8.90
2022-11-04T08:44:09.707Z,8.90
2022-11-04T08:46:40.087Z,8.90
2022-11-04T08:49:10.617Z,9.00
2022-11-04T08:51:43.272Z,9.00
2022-11-04T08:54:11.591Z,9.10
2022-11-04T08:56:41.073Z,9.10
2022-11-04T08:59:09.202Z,9.20
2022-11-04T09:01:38.431Z,9.20
2022-11-04T09:04:06.933Z,9.30
2022-11-04T09:06:37.330Z,9.30
2022-11-04T09:09:05.907Z,9.30
2022-11-04T09:11:35.644Z,9.40
2022-11-04T09:14:04.543Z,9.40
2022-11-04T09:16:33.842Z,9.50
2022-11-04T09:19:03.128Z,9.60
2022-11-04T09:21:31.437Z,9.70
2022-11-04T09:23:59.202Z,9.80
2022-11-04T09:26:27.055Z,9.90
2022-11-04T09:28:55.960Z,10.00
2022-11-04T09:31:24.386Z,10.10
2022-11-04T09:33:52.302Z,10.20
2022-11-04T09:36:21.494Z,10.20
2022-11-04T09:38:49.679Z,10.30
2022-11-04T09:41:35.990Z,10.20
2022-11-04T09:44:11.600Z,10.20
2022-11-04T09:46:40.437Z,10.20
2022-11-04T09:49:11.235Z,10.20
2022-11-04T09:51:57.970Z,10.20
2022-11-04T09:54:31.388Z,10.20
2022-11-04T09:57:02.633Z,10.20
2022-11-04T09:59:35.254Z,10.20
2022-11-04T10:02:35.904Z,10.30
2022-11-04T10:05:16.510Z,10.30
2022-11-04T10:08:03.656Z,10.40
2022-11-04T10:10:41.811Z,10.50
2022-11-04T10:13:19.925Z,10.50
2022-11-04T10:16:13.766Z,10.50
2022-11-04T10:18:53.482Z,10.50
2022-11-04T10:21:33.190Z,10.50
2022-11-04T10:24:09.185Z,10.50
2022-11-04T10:26:45.194Z,10.60
2022-11-04T10:29:16.955Z,10.60
2022-11-04T10:31:47.458Z,10.70
2022-11-04T10:34:27.682Z,10.70
2022-11-04T10:36:57.812Z,10.80
2022-11-04T10:39:31.179Z,10.80
2022-11-04T10:41:59.287Z,10.80
2022-11-04T10:44:29.915Z,10.80
2022-11-04T10:47:08.597Z,10.90
2022-11-04T10:50:14.051Z,10.90
2022-11-04T10:52:37.974Z,11.00
2022-11-04T10:55:16.766Z,11.00
2022-11-04T10:57:44.826Z,11.00
2022-11-04T11:00:34.557Z,11.00
2022-11-04T11:03:02.383Z,11.00
2022-11-04T11:05:30.192Z,11.00
2022-11-04T11:07:59.316Z,11.10
2022-11-04T11:10:30.682Z,11.10
2022-11-04T11:13:02.002Z,11.10
2022-11-04T11:15:34.973Z,11.20
2022-11-04T11:18:15.140Z,11.30
2022-11-04T11:20:44.133Z,11.40
2022-11-04T11:23:34.397Z,11.40
2022-11-04T11:26:04.391Z,11.50
2022-11-04T11:28:37.973Z,11.50
2022-11-04T11:31:16.202Z,11.50
2022-11-04T11:33:51.236Z,11.60
2022-11-04T11:36:26.187Z,11.60
2022-11-04T11:39:03.475Z,11.70
2022-11-04T11:41:34.197Z,11.70
2022-11-04T11:44:08.255Z,11.70
2022-11-04T11:46:41.995Z,11.70
2022-11-04T11:49:25.376Z,11.70
2022-11-04T11:51:53.133Z,11.70
2022-11-04T11:54:28.690Z,11.70
2022-11-04T11:57:13.755Z,11.70
2022-11-04T12:02:46.329Z,11.80
2022-11-04T12:11:11.935Z,11.90
2022-11-04T12:13:46.968Z,11.90
2022-11-04T12:16:26.657Z,11.90
2022-11-04T12:19:08.155Z,12.00
2022-11-04T12:21:40.576Z,12.10
2022-11-04T12:24:19.293Z,12.10
2022-11-04T12:26:58.220Z,12.10
2022-11-04T12:29:41.898Z,12.10
2022-11-04T12:32:21.283Z,12.10
2022-11-04T12:35:02.202Z,12.00
2022-11-04T12:37:40.247Z,12.00
2022-11-04T12:40:21.432Z,12.00
2022-11-04T12:43:11.671Z,11.90
2022-11-04T12:45:53.911Z,11.90
2022-11-04T12:48:40.228Z,11.90
2022-11-04T12:51:18.719Z,11.80
2022-11-04T12:53:58.103Z,11.80
2022-11-04T12:56:37.287Z,11.80
2022-11-04T12:59:30.153Z,11.70
2022-11-04T13:02:04.065Z,11.70
2022-11-04T13:04:36.729Z,11.70
2022-11-04T13:07:10.868Z,11.70
2022-11-04T13:09:43.273Z,11.60
2022-11-04T13:12:13.947Z,11.60
2022-11-04T13:14:48.177Z,11.60
2022-11-04T13:17:21.304Z,11.50
2022-11-04T13:19:52.652Z,11.40
2022-11-04T13:22:24.641Z,11.40
2022-11-04T13:24:56.576Z,11.40
2022-11-04T13:27:27.261Z,11.30
2022-11-04T13:30:16.569Z,11.30
2022-11-04T13:32:50.090Z,11.20
2022-11-04T13:35:24.812Z,11.20
2022-11-04T13:37:58.517Z,11.20
2022-11-04T13:40:29.433Z,11.20
2022-11-04T13:43:42.825Z,11.20
2022-11-04T13:46:26.188Z,11.20
2022-11-04T13:49:07.176Z,11.10
2022-11-04T13:51:38.833Z,11.10
2022-11-04T13:54:08.044Z,11.10
2022-11-04T13:56:38.202Z,11.10
2022-11-04T13:59:19.250Z,11.10
2022-11-04T14:01:47.480Z,11.10
2022-11-04T14:04:30.007Z,11.10
2022-11-04T14:07:00.462Z,11.10
2022-11-04T14:10:00.910Z,11.10
2022-11-04T14:12:35.455Z,11.20
2022-11-04T14:15:16.943Z,11.20
2022-11-04T14:18:27.841Z,11.20
2022-11-04T14:21:09.212Z,11.20
2022-11-04T14:23:38.552Z,11.20
2022-11-04T14:26:08.363Z,11.10
2022-11-04T14:28:37.058Z,11.10
2022-11-04T14:31:06.521Z,11.10
2022-11-04T14:33:49.629Z,11.10
2022-11-04T14:36:32.195Z,11.10
2022-11-04T14:39:03.492Z,11.10
2022-11-04T14:41:50.484Z,11.10
2022-11-04T14:44:25.826Z,11.10
2022-11-04T14:46:57.174Z,11.10
2022-11-04T14:49:39.291Z,11.10
2022-11-04T14:52:19.935Z,11.10
2022-11-04T14:54:48.484Z,11.00
2022-11-04T14:57:17.779Z,11.00
2022-11-04T14:59:46.371Z,11.00
2022-11-04T15:02:21.061Z,11.00
2022-11-04T15:04:52.780Z,10.90
2022-11-04T15:07:35.534Z,10.90
2022-11-04T15:10:19.382Z,10.80
2022-11-04T15:12:54.977Z,10.90
2022-11-04T15:15:44.328Z,10.80
2022-11-04T15:18:16.846Z,10.80
2022-11-04T15:20:49.784Z,10.80
2022-11-04T15:23:26.841Z,10.80
2022-11-04T15:25:55.787Z,10.80
2022-11-04T15:28:26.963Z,10.70
2022-11-04T15:31:00.807Z,10.70
2022-11-04T15:33:30.021Z,10.70
2022-11-04T15:35:59.879Z,10.70
2022-11-04T15:38:29.579Z,10.70
2022-11-04T15:41:19.742Z,10.70
2022-11-04T15:43:46.606Z,10.60
2022-11-04T15:46:19.554Z,10.60
2022-11-04T15:49:05.904Z,10.60
2022-11-04T15:51:40.441Z,10.60
2022-11-04T15:54:21.618Z,10.50
2022-11-04T15:56:52.646Z,10.50
2022-11-04T15:59:23.800Z,10.50
2022-11-04T16:01:53.595Z,10.50
2022-11-04T16:04:24.634Z,10.50
2022-11-04T16:07:07.936Z,10.50
2022-11-04T16:09:49.193Z,10.50
2022-11-04T16:12:18.658Z,10.50
2022-11-04T16:14:51.081Z,10.50
2022-11-04T16:17:19.502Z,10.50
2022-11-04T16:19:48.878Z,10.40
2022-11-04T16:22:22.471Z,10.50
2022-11-04T16:24:54.366Z,10.50
2022-11-04T16:27:23.577Z,10.40
2022-11-04T16:30:06.865Z,10.40
2022-11-04T16:32:42.625Z,10.40
2022-11-04T16:35:16.831Z,10.40
2022-11-04T16:37:44.647Z,10.40
2022-11-04T16:40:14.374Z,10.30
2022-11-04T16:42:42.416Z,10.20
2022-11-04T16:45:20.921Z,10.20
2022-11-04T16:47:48.645Z,10.10
2022-11-04T16:50:17.754Z,10.10
2022-11-04T16:52:45.757Z,10.00
2022-11-04T16:55:15.681Z,10.00
2022-11-04T16:57:44.302Z,10.00
2022-11-04T17:00:20.737Z,9.90
2022-11-04T17:02:49.498Z,9.90
2022-11-04T17:05:17.876Z,9.90
2022-11-04T17:07:53.568Z,9.80
2022-11-04T17:10:26.340Z,9.80
2022-11-04T17:12:54.113Z,9.80
2022-11-04T17:15:22.427Z,9.80
2022-11-04T17:17:50.853Z,9.80
2022-11-04T17:20:19.451Z,9.80
2022-11-04T17:22:48.756Z,9.80
2022-11-04T17:25:19.601Z,9.80
2022-11-04T17:27:48.761Z,9.80
2022-11-04T17:30:17.552Z,9.80
2022-11-04T17:32:46.318Z,9.80
2022-11-04T17:35:14.756Z,9.80
2022-11-04T17:37:42.875Z,9.80
2022-11-04T17:40:14.693Z,9.80
2022-11-04T17:42:59.952Z,9.80
2022-11-04T17:45:29.162Z,9.80
2022-11-04T17:47:56.999Z,9.70
2022-11-04T17:50:24.865Z,9.70
2022-11-04T17:52:52.566Z,9.70
2022-11-04T17:55:26.183Z,9.70
2022-11-04T17:57:55.191Z,9.70
2022-11-04T18:00:25.739Z,9.70
2022-11-04T18:02:54.870Z,9.60
2022-11-04T18:05:22.711Z,9.60
2022-11-04T18:07:50.437Z,9.60
2022-11-04T18:10:18.264Z,9.50
2022-11-04T18:12:45.120Z,9.50
2022-11-04T18:15:16.846Z,9.40
2022-11-04T18:17:46.394Z,9.40
2022-11-04T18:20:16.193Z,9.40
2022-11-04T18:22:44.426Z,9.40
2022-11-04T18:25:13.116Z,9.40
2022-11-04T18:27:40.998Z,9.40
2022-11-04T18:30:09.930Z,9.40
2022-11-04T18:32:37.868Z,9.40
2022-11-04T18:35:06.318Z,9.40
2022-11-04T18:37:35.421Z,9.30
2022-11-04T18:40:03.160Z,9.30
2022-11-04T18:42:30.929Z,9.30
2022-11-04T18:44:58.696Z,9.30
2022-11-04T18:47:26.878Z,9.30
2022-11-04T18:49:54.811Z,9.30
2022-11-04T18:52:22.649Z,9.30
2022-11-04T18:54:51.773Z,9.30
2022-11-04T18:57:19.609Z,9.30
2022-11-04T18:59:47.550Z,9.30
2022-11-04T19:02:20.839Z,9.30
2022-11-04T19:04:48.653Z,9.30
2022-11-04T19:07:16.577Z,9.20
2022-11-04T19:09:47.074Z,9.20
2022-11-04T19:12:35.256Z,9.20
2022-11-04T19:15:04.503Z,9.20
2022-11-04T19:17:32.714Z,9.10
2022-11-04T19:20:03.288Z,9.10
2022-11-04T19:22:34.683Z,9.10
2022-11-04T19:25:02.439Z,9.00
2022-11-04T19:27:31.493Z,9.00
2022-11-04T19:29:59.191Z,9.00
2022-11-04T19:32:26.953Z,9.00
2022-11-04T19:34:54.634Z,8.90
2022-11-04T19:37:22.783Z,8.90
2022-11-04T19:39:50.527Z,8.90
2022-11-04T19:42:35.895Z,8.90
2022-11-04T19:45:05.375Z,8.80
2022-11-04T19:47:33.097Z,8.80
2022-11-04T19:50:00.799Z,8.80
2022-11-04T19:52:28.514Z,8.70
2022-11-04T19:54:56.221Z,8.70
2022-11-04T19:57:24.019Z,8.60
2022-11-04T19:59:52.257Z,8.60
2022-11-04T20:02:21.706Z,8.60
2022-11-04T20:04:50.010Z,8.50
2022-11-04T20:07:17.954Z,8.50
2022-11-04T20:09:45.672Z,8.50
2022-11-04T20:12:31.134Z,8.40
2022-11-04T20:14:58.963Z,8.40
2022-11-04T20:17:28.036Z,8.30
2022-11-04T20:19:55.778Z,8.30
2022-11-04T20:22:23.507Z,8.30
2022-11-04T20:24:51.204Z,8.30
2022-11-04T20:27:18.936Z,8.20
2022-11-04T20:29:46.720Z,8.20
2022-11-04T20:32:14.444Z,8.10
2022-11-04T20:34:43.530Z,8.10
2022-11-04T20:37:12.375Z,8.00
2022-11-04T20:39:40.160Z,8.00
2022-11-04T20:42:07.992Z,8.00
2022-11-04T20:44:35.675Z,7.90
2022-11-04T20:47:03.419Z,7.90
2022-11-04T20:49:31.475Z,7.90
2022-11-04T20:52:00.552Z,7.90
2022-11-04T20:54:28.709Z,7.90
2022-11-04T20:56:56.459Z,7.90
2022-11-04T20:59:24.243Z,7.90
2022-11-04T21:01:52.553Z,7.90
2022-11-04T21:04:21.795Z,7.80
2022-11-04T21:06:51.163Z,7.80
2022-11-04T21:09:22.094Z,7.80
2022-11-04T21:11:51.185Z,7.80
2022-11-04T21:14:20.106Z,7.70
2022-11-04T21:16:48.758Z,7.80
2022-11-04T21:19:17.002Z,7.70
2022-11-04T21:21:47.037Z,7.80
2022-11-04T21:24:16.967Z,7.70
2022-11-04T21:26:46.790Z,7.70
2022-11-04T21:29:16.097Z,7.70
2022-11-04T21:31:44.699Z,7.60
2022-11-04T21:34:12.684Z,7.80
2022-11-04T21:36:41.165Z,7.80
2022-11-04T21:39:10.809Z,7.70
2022-11-04T21:41:38.770Z,7.70
2022-11-04T21:44:11.112Z,7.70
2022-11-04T21:46:39.513Z,7.70
2022-11-04T21:49:07.325Z,7.80
2022-11-04T21:51:35.541Z,7.70
2022-11-04T21:54:07.007Z,7.70
2022-11-04T21:56:34.962Z,7.70
2022-11-04T21:59:03.374Z,7.70
2022-11-04T22:01:33.405Z,7.80
2022-11-04T22:04:03.075Z,7.80
2022-11-04T22:06:35.009Z,7.80
2022-11-04T22:09:04.878Z,7.80
2022-11-04T22:11:36.218Z,7.80
2022-11-04T22:14:07.248Z,7.80
2022-11-04T22:16:38.815Z,7.80
2022-11-04T22:19:10.047Z,7.80
2022-11-04T22:21:40.704Z,7.80
2022-11-04T22:24:10.863Z,7.80
2022-11-04T22:26:39.237Z,7.80
2022-11-04T22:29:07.612Z,7.80
2022-11-04T22:31:38.653Z,7.80
2022-11-04T22:34:07.052Z,7.80
2022-11-04T22:36:35.499Z,7.80
2022-11-04T22:39:03.397Z,7.80
2022-11-04T22:41:32.790Z,7.80
2022-11-04T22:44:00.688Z,7.70
2022-11-04T22:46:29.867Z,7.80
2022-11-04T22:48:59.577Z,7.80
2022-11-04T22:51:27.494Z,7.80
2022-11-04T22:54:01.359Z,7.80
2022-11-04T22:56:32.599Z,7.80
2022-11-04T22:59:00.423Z,7.80
2022-11-04T23:01:28.423Z,7.80
2022-11-04T23:03:57.694Z,7.80
2022-11-04T23:06:25.610Z,7.80
2022-11-04T23:08:59.614Z,7.80
2022-11-04T23:11:46.708Z,7.90
2022-11-04T23:14:32.940Z,7.90
2022-11-04T23:17:14.917Z,7.90
2022-11-04T23:19:44.449Z,7.90
2022-11-04T23:22:29.625Z,7.90
2022-11-04T23:25:06.528Z,8.00
2022-11-04T23:27:52.521Z,8.00
2022-11-04T23:30:25.278Z,8.00
2022-11-04T23:32:55.192Z,8.00
2022-11-04T23:35:43.545Z,8.10
2022-11-04T23:38:11.559Z,8.10
2022-11-04T23:40:39.583Z,8.10
2022-11-04T23:43:06.823Z,8.10
2022-11-04T23:45:54.619Z,8.10
2022-11-04T23:48:39.992Z,8.10
2022-11-04T23:51:28.892Z,8.10
2022-11-04T23:54:14.122Z,8.10
2022-11-04T23:56:59.404Z,8.00
2022-11-04T23:59:44.603Z,8.00
